Time;durP1;ratioP1;P1;durP2;ratioP2;P2;SDS_P1;SDS_P2;PMS_P1;PMS_P2;Temp;Humidity;BMP_temperature;BMP_pressure;BME280_temperature;BME280_humidity;BME280_pressure;Samples;Min_cycle;Max_cycle;Signal;HPM_P1;HPM_P2
2022/12/23 00:00:16;;;;;;;20.62;13.45;;;;;;;2.97;100.00;99202.42;1803447;78;21009;-63
2022/12/23 00:02:43;;;;;;;17.67;11.93;;;;;;;3.01;100.00;99195.83;1809607;78;21421;-63
2022/12/23 00:05:11;;;;;;;15.43;11.18;;;;;;;3.03;100.00;99201.00;1798017;78;21625;-62
2022/12/23 00:07:38;;;;;;;14.55;11.25;;;;;;;3.02;100.00;99197.55;1794488;78;21571;-63
2022/12/23 00:10:06;;;;;;;17.05;12.60;;;;;;;3.02;100.00;99187.62;1760932;79;21891;-62
2022/12/23 00:15:18;;;;;;;18.90;13.10;;;;;;;3.06;100.00;99192.71;1763192;80;21415;-62
2022/12/23 00:17:45;;;;;;;17.03;11.77;;;;;;;3.08;100.00;99188.34;1807074;77;21462;-63
2022/12/23 00:20:13;;;;;;;16.90;11.90;;;;;;;3.05;100.00;99184.52;1782829;78;21582;-64
2022/12/23 00:25:40;;;;;;;17.07;10.82;;;;;;;3.08;100.00;99179.70;1798131;78;21475;-65
2022/12/23 00:28:11;;;;;;;15.40;11.30;;;;;;;3.06;100.00;99181.47;1797781;78;21569;-62
2022/12/23 00:30:54;;;;;;;18.62;12.10;;;;;;;2.96;100.00;99181.22;1768335;79;21538;-65
2022/12/23 00:33:24;;;;;;;16.57;11.60;;;;;;;2.91;100.00;99179.57;1791369;78;20997;-65
2022/12/23 00:35:51;;;;;;;17.00;12.55;;;;;;;2.88;100.00;99178.36;1808973;78;22195;-65
2022/12/23 00:42:52;;;;;;;15.90;12.43;;;;;;;2.90;100.00;99177.00;1759662;79;21514;-65
2022/12/23 00:43:35;;;;;;;13.58;10.48;;;;;;;2.87;100.00;99177.08;1769169;80;21480;-64
2022/12/23 00:46:01;;;;;;;14.07;9.60;;;;;;;2.86;100.00;99168.86;1767050;80;21585;-64
2022/12/23 00:51:14;;;;;;;15.68;10.35;;;;;;;2.82;100.00;99161.56;1808484;78;21485;-64
2022/12/23 00:53:40;;;;;;;15.00;10.20;;;;;;;2.81;100.00;99161.63;1800871;78;21544;-64
2022/12/23 00:56:07;;;;;;;18.37;11.38;;;;;;;2.81;100.00;99156.43;1765756;80;21662;-60
2022/12/23 00:58:34;;;;;;;15.33;11.37;;;;;;;2.84;100.00;99150.70;1744988;81;21557;-62
2022/12/23 01:06:31;;;;;;;18.70;12.63;;;;;;;2.71;100.00;99151.41;1768483;80;21455;-64
2022/12/23 01:08:57;;;;;;;19.80;11.50;;;;;;;2.66;100.00;99157.57;1801093;78;21486;-63
2022/12/23 01:11:24;;;;;;;17.70;12.28;;;;;;;2.69;100.00;99157.49;1797054;78;21562;-63
2022/12/23 01:13:51;;;;;;;15.78;10.80;;;;;;;2.73;100.00;99158.72;1800984;77;21877;-64
2022/12/23 01:16:18;;;;;;;14.65;10.63;;;;;;;2.71;100.00;99156.59;1773396;79;21459;-64
2022/12/23 01:18:44;;;;;;;12.70;9.73;;;;;;;2.65;100.00;99157.98;1791123;78;21576;-63
2022/12/23 01:21:11;;;;;;;14.90;10.58;;;;;;;2.63;100.00;99158.91;1797486;77;21599;-64
2022/12/23 01:23:38;;;;;;;15.13;11.93;;;;;;;2.57;100.00;99149.95;1801634;78;22677;-63
2022/12/23 01:26:06;;;;;;;16.95;11.70;;;;;;;2.58;100.00;99159.02;1764344;79;21772;-64
2022/12/23 01:28:33;;;;;;;13.40;10.28;;;;;;;2.62;100.00;99148.98;1726201;80;21526;-63
2022/12/23 01:31:01;;;;;;;13.95;10.53;;;;;;;2.64;100.00;99163.23;1760724;80;21407;-63
2022/12/23 01:33:28;;;;;;;13.85;10.13;;;;;;;2.66;100.00;99157.13;1800946;78;21533;-64
2022/12/23 01:36:01;;;;;;;12.33;9.90;;;;;;;2.68;100.00;99159.23;1807344;78;21516;-63
2022/12/23 01:38:28;;;;;;;14.68;10.38;;;;;;;2.67;100.00;99157.52;1759175;80;21797;-64
2022/12/23 01:40:55;;;;;;;14.80;11.38;;;;;;;2.69;100.00;99158.38;1786684;78;21462;-63
2022/12/23 01:43:26;;;;;;;13.68;10.30;;;;;;;2.72;100.00;99149.20;1791763;77;21462;-63
2022/12/23 01:45:52;;;;;;;11.75;9.60;;;;;;;2.75;100.00;99151.33;1775853;78;21498;-62
2022/12/23 01:48:24;;;;;;;13.90;10.70;;;;;;;2.74;100.00;99141.39;1785073;78;20907;-62
2022/12/23 01:51:03;;;;;;;14.70;11.03;;;;;;;2.73;100.00;99141.84;1793030;77;21746;-63
2022/12/23 01:53:35;;;;;;;15.48;10.75;;;;;;;2.65;100.00;99135.92;1799285;78;21556;-63
2022/12/23 01:56:10;;;;;;;15.58;11.22;;;;;;;2.69;100.00;99144.09;1764408;80;21576;-63
2022/12/23 01:58:47;;;;;;;16.82;12.37;;;;;;;2.66;100.00;99148.48;1741873;81;21608;-63
2022/12/23 02:04:06;;;;;;;16.52;10.70;;;;;;;2.61;100.00;99145.95;1765081;80;21970;-62
2022/12/23 02:09:27;;;;;;;11.60;9.30;;;;;;;2.49;100.00;99153.98;1804453;78;21532;-62
2022/12/23 02:12:12;;;;;;;13.45;10.03;;;;;;;2.49;100.00;99150.94;1800198;77;21179;-62
2022/12/23 02:18:33;;;;;;;17.35;12.68;;;;;;;2.57;100.00;99141.71;1792093;77;21801;-64
2022/12/23 02:21:17;;;;;;;16.37;10.85;;;;;;;2.53;100.00;99132.27;1798340;77;21446;-63
2022/12/23 02:24:17;;;;;;;18.27;11.70;;;;;;;2.59;100.00;99133.45;1795118;77;21679;-62
2022/12/23 02:27:24;;;;;;;17.15;10.68;;;;;;;2.63;100.00;99135.55;1769151;78;21576;-63
2022/12/23 02:30:38;;;;;;;16.75;12.68;;;;;;;2.65;100.00;99129.89;1761372;80;21431;-63
2022/12/23 02:33:16;;;;;;;16.27;12.05;;;;;;;2.70;100.00;99134.11;1768043;80;21914;-62
2022/12/23 02:35:52;;;;;;;14.73;11.60;;;;;;;2.71;100.00;99125.87;1755037;80;21031;-63
2022/12/23 02:38:33;;;;;;;15.80;11.18;;;;;;;2.72;100.00;99122.40;1758776;79;21530;-63
2022/12/23 02:41:44;;;;;;;15.83;12.05;;;;;;;2.72;100.00;99136.68;1803132;78;21509;-63
2022/12/23 02:44:21;;;;;;;15.70;11.43;;;;;;;2.75;100.00;99150.91;1788312;78;21427;-61
2022/12/23 02:46:51;;;;;;;15.63;11.12;;;;;;;2.72;100.00;99144.02;1797906;77;21792;-63
2022/12/23 02:49:29;;;;;;;19.15;11.10;;;;;;;2.76;100.00;99152.61;1768571;80;21541;-63
2022/12/23 02:51:57;;;;;;;16.05;11.45;;;;;;;2.78;100.00;99147.39;1796754;78;21522;-63
2022/12/23 02:54:30;;;;;;;20.47;12.50;;;;;;;2.77;100.00;99155.63;1768373;78;21577;-63
2022/12/23 02:56:57;;;;;;;16.85;12.00;;;;;;;2.75;100.00;99153.92;1794745;77;21480;-63
2022/12/23 02:59:26;;;;;;;17.30;11.63;;;;;;;2.75;100.00;99155.23;1772861;79;21781;-62
2022/12/23 03:01:53;;;;;;;17.20;12.33;;;;;;;2.78;100.00;99159.92;1808157;78;21632;-62
2022/12/23 03:04:20;;;;;;;17.62;12.35;;;;;;;2.71;100.00;99154.00;1764733;79;21545;-62
2022/12/23 03:06:54;;;;;;;18.25;12.00;;;;;;;2.62;100.00;99142.91;1756915;79;21576;-64
2022/12/23 03:09:54;;;;;;;18.05;13.13;;;;;;;2.62;100.00;99137.72;1806325;78;21529;-62
2022/12/23 03:12:40;;;;;;;18.75;11.88;;;;;;;2.62;100.00;99125.62;1769767;80;21794;-63
2022/12/23 03:15:37;;;;;;;16.75;11.78;;;;;;;2.60;100.00;99133.88;1768394;79;21480;-63
2022/12/23 03:18:29;;;;;;;21.50;13.83;;;;;;;2.60;100.00;99129.11;1758855;79;21025;-63
2022/12/23 03:21:10;;;;;;;15.48;11.12;;;;;;;2.61;100.00;99129.53;1762052;79;21479;-63
2022/12/23 03:23:57;;;;;;;16.75;12.00;;;;;;;2.59;100.00;99133.91;1744947;80;21494;-62
2022/12/23 03:26:33;;;;;;;;;;;;;;;2.56;100.00;99126.16;1765822;80;21726;-62
2022/12/23 03:29:04;;;;;;;19.30;12.13;;;;;;;2.49;100.00;99118.95;1753207;80;20424;-63
2022/12/23 03:31:32;;;;;;;16.12;11.95;;;;;;;2.45;100.00;99125.05;1759704;80;21441;-62
2022/12/23 03:34:03;;;;;;;18.63;13.03;;;;;;;2.43;100.00;99138.50;1802675;77;21418;-63
2022/12/23 03:36:42;;;;;;;23.05;13.85;;;;;;;2.47;100.00;99131.09;1745353;79;21060;-63
2022/12/23 03:39:12;;;;;;;18.80;12.95;;;;;;;2.50;100.00;99129.72;1734867;81;21913;-63
2022/12/23 03:41:42;;;;;;;18.07;12.43;;;;;;;2.50;100.00;99125.83;1781851;78;21579;-63
2022/12/23 03:44:16;;;;;;;19.62;12.80;;;;;;;2.51;100.00;99128.41;1797608;77;21529;-60
2022/12/23 03:47:05;;;;;;;20.23;13.88;;;;;;;2.45;100.00;99130.23;1797302;78;21530;-64
2022/12/23 03:49:38;;;;;;;19.73;14.50;;;;;;;2.48;100.00;99127.60;1804139;78;21029;-63
2022/12/23 03:52:14;;;;;;;22.45;13.38;;;;;;;2.49;100.00;99135.36;1756497;80;21903;-63
2022/12/23 03:54:56;;;;;;;19.82;13.18;;;;;;;2.51;100.00;99134.05;1773453;79;21506;-61
2022/12/23 03:57:27;;;;;;;16.20;12.05;;;;;;;2.55;100.00;99134.84;1759541;80;21841;-63
2022/12/23 03:59:54;;;;;;;19.75;12.78;;;;;;;2.54;100.00;99132.67;1793455;78;21628;-64
2022/12/23 04:02:44;;;;;;;18.85;13.40;;;;;;;2.52;100.00;99122.77;1797523;78;21387;-64
2022/12/23 04:05:29;;;;;;;20.97;14.07;;;;;;;2.52;100.00;99125.36;1760289;80;21806;-63
2022/12/23 04:08:06;;;;;;;20.65;13.93;;;;;;;2.59;100.00;99108.80;1792935;77;21544;-61
2022/12/23 04:10:33;;;;;;;19.15;12.33;;;;;;;2.59;100.00;99110.09;1788785;77;21446;-64
2022/12/23 04:12:59;;;;;;;17.12;12.43;;;;;;;2.60;100.00;99118.72;1785748;78;21565;-64
2022/12/23 04:15:26;;;;;;;20.95;13.25;;;;;;;2.61;100.00;99112.66;1776302;79;21557;-64
2022/12/23 04:17:54;;;;;;;18.90;14.18;;;;;;;2.62;100.00;99120.43;1767298;80;22192;-64
2022/12/23 04:20:22;;;;;;;20.45;14.38;;;;;;;2.66;100.00;99121.23;1752839;80;21465;-63
2022/12/23 04:22:49;;;;;;;18.77;13.35;;;;;;;2.70;100.00;99122.88;1762223;79;21398;-63
2022/12/23 04:25:16;;;;;;;20.45;13.95;;;;;;;2.72;100.00;99119.35;1808356;77;20999;-64
2022/12/23 04:27:43;;;;;;;17.05;11.90;;;;;;;2.71;100.00;99124.15;1759213;80;21445;-64
2022/12/23 04:30:12;;;;;;;19.48;13.13;;;;;;;2.72;100.00;99134.93;1752564;80;21774;-64
2022/12/23 04:32:40;;;;;;;20.08;14.65;;;;;;;2.67;100.00;99136.75;1742407;81;21628;-64
2022/12/23 04:35:08;;;;;;;23.80;15.55;;;;;;;2.70;100.00;99126.77;1738608;81;21464;-64
2022/12/23 04:37:35;;;;;;;18.25;13.83;;;;;;;2.69;100.00;99127.22;1769885;80;21517;-63
2022/12/23 04:40:01;;;;;;;17.73;12.37;;;;;;;2.68;100.00;99134.58;1803250;77;21645;-63
2022/12/23 04:42:28;;;;;;;19.10;12.98;;;;;;;2.66;100.00;99132.45;1790448;78;21708;-64
2022/12/23 04:44:55;;;;;;;22.43;14.83;;;;;;;2.65;100.00;99143.71;1782011;77;21625;-64
2022/12/23 04:47:22;;;;;;;19.52;14.07;;;;;;;2.69;100.00;99157.49;1797227;77;21490;-64
2022/12/23 04:49:48;;;;;;;22.20;14.20;;;;;;;2.73;100.00;99160.02;1771077;79;21569;-64
2022/12/23 04:52:15;;;;;;;19.15;13.50;;;;;;;2.66;100.00;99155.82;1785213;78;21614;-64
2022/12/23 04:54:41;;;;;;;17.52;12.90;;;;;;;2.65;100.00;99161.88;1794597;77;21417;-64
2022/12/23 06:16:08;;;;;;;14.00;9.83;;;;;;;-0.36;100.00;99152.65;1751853;75;23277;-57
2022/12/23 06:18:35;;;;;;;12.45;10.48;;;;;;;0.14;100.00;99184.59;1707650;81;21548;-56
2022/12/23 06:21:03;;;;;;;14.90;12.47;;;;;;;0.38;100.00;99182.69;1705614;82;21803;-58
2022/12/23 06:23:29;;;;;;;20.80;15.40;;;;;;;0.55;100.00;99184.67;1719503;82;25900;-56
2022/12/23 06:26:00;;;;;;;22.85;14.30;;;;;;;0.71;100.00;99175.02;1717803;82;21528;-56
2022/12/23 06:28:28;;;;;;;18.75;14.50;;;;;;;0.91;100.00;99174.81;1704087;82;21548;-58
2022/12/23 06:30:55;;;;;;;20.97;14.38;;;;;;;1.08;100.00;99175.06;1701503;82;20983;-60
2022/12/23 06:33:23;;;;;;;20.37;13.98;;;;;;;1.19;100.00;99173.62;1706921;82;22108;-59
2022/12/23 06:35:49;;;;;;;;;;;;;;;1.30;100.00;99178.23;1705461;81;21535;-59
2022/12/23 06:38:16;;;;;;;21.75;14.78;;;;;;;1.36;100.00;99182.05;1697773;83;20500;-59
2022/12/23 06:40:43;;;;;;;19.87;14.33;;;;;;;1.48;100.00;99192.69;1714775;82;21511;-59
2022/12/23 06:43:12;;;;;;;19.95;14.07;;;;;;;1.55;100.00;99190.44;1719502;82;21498;-58
2022/12/23 06:45:39;;;;;;;17.35;12.82;;;;;;;1.64;100.00;99186.84;1710352;82;21916;-59
2022/12/23 06:48:06;;;;;;;29.27;18.90;;;;;;;1.72;100.00;99176.80;1714612;82;25990;-59
2022/12/23 06:50:33;;;;;;;24.03;16.97;;;;;;;1.86;100.00;99180.92;1712812;82;21688;-59
2022/12/23 06:52:59;;;;;;;27.77;19.10;;;;;;;1.95;100.00;99166.08;1724890;82;21515;-59
2022/12/23 06:55:26;;;;;;;23.70;17.70;;;;;;;2.02;100.00;99169.45;1714769;82;21629;-59
2022/12/23 06:57:53;;;;;;;107.40;97.37;;;;;;;2.07;100.00;99166.77;1719241;82;21805;-59
2022/12/23 07:00:20;;;;;;;47.60;43.13;;;;;;;2.11;100.00;99175.80;1708815;82;21136;-59
2022/12/23 07:02:46;;;;;;;31.85;26.73;;;;;;;2.29;100.00;99164.24;1690343;82;21627;-59
2022/12/23 07:05:15;;;;;;;32.85;25.17;;;;;;;2.29;100.00;99164.24;1707079;82;21576;-58
2022/12/23 07:07:42;;;;;;;19.77;16.77;;;;;;;2.36;100.00;99165.01;1708080;82;21496;-58
2022/12/23 07:10:09;;;;;;;47.73;43.08;;;;;;;2.35;100.00;99169.77;1699970;82;21829;-57
2022/12/23 07:12:36;;;;;;;46.73;32.45;;;;;;;2.40;100.00;99158.03;1702290;82;21580;-60
2022/12/23 07:18:35;;;;;;;23.05;19.02;;;;;;;2.26;100.00;99150.05;1825771;76;26772;-59
2022/12/23 07:21:02;;;;;;;47.00;28.60;;;;;;;2.43;100.00;99183.91;1741014;80;21425;-57
2022/12/23 07:23:29;;;;;;;37.33;23.67;;;;;;;2.47;100.00;99170.02;1746584;80;21843;-58
2022/12/23 07:25:56;;;;;;;28.27;20.40;;;;;;;2.51;100.00;99167.33;1742106;81;21540;-57
2022/12/23 07:28:23;;;;;;;95.10;47.10;;;;;;;2.58;100.00;99167.22;1745398;81;21541;-58
2022/12/23 07:30:50;;;;;;;56.60;32.33;;;;;;;2.66;100.00;99166.20;1754309;80;21049;-57
2022/12/23 07:33:16;;;;;;;61.55;33.55;;;;;;;2.72;100.00;99156.15;1760180;80;21045;-57
2022/12/23 07:35:43;;;;;;;56.40;30.97;;;;;;;2.77;100.00;99153.45;1761243;80;22206;-58
2022/12/23 07:38:10;;;;;;;45.63;28.67;;;;;;;2.82;100.00;99149.03;1809387;78;21500;-58
2022/12/23 07:40:36;;;;;;;63.38;33.95;;;;;;;2.93;100.00;99149.23;1764506;79;21615;-58
2022/12/23 07:43:04;;;;;;;51.00;28.47;;;;;;;3.07;100.00;99151.58;1754342;80;21581;-56
2022/12/23 07:45:32;;;;;;;37.63;23.02;;;;;;;3.10;100.00;99148.89;1766961;79;21505;-56
2022/12/23 07:48:00;;;;;;;;;;;;;;;3.11;100.00;99149.33;1761246;80;21564;-57
2022/12/23 07:50:27;;;;;;;26.02;17.48;;;;;;;3.13;100.00;99149.30;1753271;79;20581;-57
2022/12/23 07:52:54;;;;;;;31.47;17.93;;;;;;;3.24;100.00;99151.66;1766242;79;21490;-56
2022/12/23 07:55:21;;;;;;;24.25;18.35;;;;;;;3.29;100.00;99144.17;1750477;80;21436;-56
2022/12/23 07:57:49;;;;;;;39.27;24.55;;;;;;;3.34;100.00;99151.04;1769561;78;21406;-55
2022/12/23 08:00:17;;;;;;;45.83;25.50;;;;;;;3.37;100.00;99157.03;1807132;78;21802;-57
2022/12/23 08:02:43;;;;;;;45.63;24.60;;;;;;;3.35;100.00;99154.87;1768306;80;21663;-56
2022/12/23 08:05:10;;;;;;;40.20;22.52;;;;;;;3.37;100.00;99154.86;1770476;79;21518;-57
2022/12/23 08:07:37;;;;;;;33.50;20.77;;;;;;;3.39;100.00;99159.57;1764009;79;21089;-58
2022/12/23 08:10:05;;;;;;;38.88;23.52;;;;;;;3.49;100.00;99159.80;1796332;77;21436;-58
2022/12/23 08:12:34;;;;;;;37.40;22.25;;;;;;;3.54;100.00;99172.69;1792722;78;21465;-57
2022/12/23 08:15:01;;;;;;;40.93;23.60;;;;;;;3.54;100.00;99163.59;1796865;77;21554;-58
2022/12/23 08:17:29;;;;;;;31.52;19.48;;;;;;;3.53;100.00;99156.70;1795918;77;21558;-57
2022/12/23 09:11:29;;;;;;;19.20;15.43;;;;;;;4.19;100.00;99107.87;1795603;78;20966;-57
2022/12/23 09:14:00;;;;;;;20.88;15.70;;;;;;;4.42;100.00;99112.47;1805717;78;21457;-56
2022/12/23 09:16:28;;;;;;;21.05;16.12;;;;;;;4.51;100.00;99111.39;1750470;79;21569;-56
2022/12/23 09:18:55;;;;;;;20.23;15.10;;;;;;;4.59;100.00;99113.33;1806671;78;21614;-57
